createdAt,value
2019-04-01T00:01:11.905Z,99986.73
2019-04-01T00:06:18.119Z,99985.61
2019-04-01T00:11:23.759Z,99985.61
2019-04-01T00:16:29.611Z,99998.91
2019-04-01T00:21:35.578Z,99996.84
2019-04-01T00:26:41.405Z,100000.56
2019-04-01T00:31:47.414Z,100011.48
2019-04-01T00:36:53.786Z,100011.09
2019-04-01T00:42:18.283Z,100014.85
2019-04-01T00:47:24.926Z,100013.02
2019-04-01T00:52:30.613Z,100016.56
2019-04-01T00:57:36.544Z,100018.65
2019-04-01T01:02:42.608Z,100016.52
2019-04-01T01:07:48.194Z,100023.09
2019-04-01T01:12:54.352Z,100017.47
2019-04-01T01:18:00.516Z,100017.38
2019-04-01T01:23:07.719Z,100019.83
2019-04-01T01:28:14.014Z,100018.86
2019-04-01T01:33:20.664Z,100018.32
2019-04-01T01:38:26.531Z,100019.18
2019-04-01T01:43:32.418Z,100017.34
2019-04-01T01:48:38.300Z,100017.34
2019-04-01T01:53:44.386Z,100024.17
2019-04-01T01:58:50.086Z,100023.11
2019-04-01T02:03:55.854Z,100023.27
2019-04-01T02:09:02.698Z,100022.51
2019-04-01T02:14:09.603Z,100022.51
2019-04-01T02:19:15.476Z,100026.28
2019-04-01T02:24:21.156Z,100028.62
2019-04-01T02:29:27.198Z,100025.69
2019-04-01T02:34:32.929Z,100016.50
2019-04-01T02:39:38.578Z,100018.66
2019-04-01T02:44:44.422Z,100005.42
2019-04-01T02:49:50.470Z,100005.42
2019-04-01T02:54:56.555Z,100013.16
2019-04-01T03:00:02.261Z,100020.02
2019-04-01T03:05:10.655Z,100020.53
2019-04-01T03:10:17.463Z,100020.00
2019-04-01T03:15:23.398Z,100028.31
2019-04-01T03:20:29.725Z,100028.31
2019-04-01T03:25:35.496Z,100018.47
2019-04-01T03:30:41.181Z,100021.67
2019-04-01T03:35:47.080Z,100026.74
2019-04-01T03:40:53.161Z,100025.72
2019-04-01T03:45:59.042Z,100019.27
2019-04-01T03:51:11.605Z,100036.09
2019-04-01T03:56:17.201Z,100016.94
2019-04-01T04:01:22.828Z,100029.44
2019-04-01T04:06:28.816Z,100029.44
2019-04-01T04:11:34.719Z,100028.26
2019-04-01T04:16:40.804Z,100031.31
2019-04-01T04:21:46.602Z,100039.11
2019-04-01T04:26:52.233Z,100032.56
2019-04-01T04:31:58.281Z,100032.33
2019-04-01T04:37:07.448Z,100030.05
2019-04-01T04:42:13.131Z,100033.31
2019-04-01T04:47:19.308Z,100034.89
2019-04-01T04:52:24.926Z,100034.97
2019-04-01T04:57:30.524Z,100038.84
2019-04-01T05:02:36.315Z,100040.44
2019-04-01T05:07:43.496Z,100040.88
2019-04-01T05:12:49.546Z,100049.48
2019-04-01T05:17:55.140Z,100048.00
2019-04-01T05:23:01.481Z,100052.80
2019-04-01T05:28:09.117Z,100053.37
2019-04-01T05:33:18.050Z,100056.36
2019-04-01T05:38:23.913Z,100057.90
2019-04-01T05:43:31.178Z,100054.70
2019-04-01T05:48:36.964Z,100049.37
2019-04-01T05:53:43.008Z,100056.03
2019-04-01T05:58:49.145Z,100055.80
2019-04-01T06:03:55.117Z,100060.98
2019-04-01T06:09:01.415Z,100063.40
2019-04-01T06:14:09.806Z,100059.22
2019-04-01T06:19:15.553Z,100062.61
2019-04-01T06:24:24.585Z,100065.64
2019-04-01T06:29:30.627Z,100064.61
2019-04-01T06:34:36.797Z,100064.64
2019-04-01T06:39:42.452Z,100068.09
2019-04-01T06:44:48.117Z,100064.55
2019-04-01T06:49:54.517Z,100066.63
2019-04-01T06:55:02.378Z,100065.67
2019-04-01T07:00:09.940Z,100068.85
2019-04-01T07:05:15.570Z,100072.11
2019-04-01T07:10:24.994Z,100067.34
2019-04-01T07:15:30.912Z,100065.77
2019-04-01T07:20:37.288Z,100068.77
2019-04-01T07:25:43.360Z,100073.41
2019-04-01T07:30:49.639Z,100072.19
2019-04-01T07:35:55.828Z,100076.80
2019-04-01T07:41:07.970Z,100067.70
2019-04-01T07:46:09.602Z,100074.21
2019-04-01T07:51:16.193Z,100067.72
2019-04-01T07:56:22.253Z,100071.55
2019-04-01T08:01:28.457Z,100074.39
2019-04-01T08:06:34.531Z,100076.72
2019-04-01T08:11:40.153Z,100077.52
2019-04-01T08:16:46.465Z,100074.20
2019-04-01T08:21:52.570Z,100073.38
2019-04-01T08:26:58.904Z,100077.11
2019-04-01T08:32:05.102Z,100077.59
2019-04-01T08:37:11.892Z,100073.59
2019-04-01T08:42:18.276Z,100062.86
2019-04-01T08:47:24.165Z,100065.24
2019-04-01T08:52:29.751Z,100057.06
2019-04-01T08:57:35.486Z,100059.11
2019-04-01T09:02:41.125Z,100059.09
2019-04-01T09:07:47.088Z,100060.06
2019-04-01T09:12:53.781Z,100052.81
2019-04-01T09:17:59.665Z,100042.05
2019-04-01T09:23:05.951Z,100041.83
2019-04-01T09:28:12.323Z,100027.79
2019-04-01T09:33:18.005Z,100027.85
2019-04-01T09:38:23.683Z,100020.54
2019-04-01T09:43:29.454Z,100035.16
2019-04-01T09:48:35.040Z,100028.45
2019-04-01T09:53:40.698Z,100013.70
2019-04-01T09:58:46.713Z,100013.54
2019-04-01T10:03:52.787Z,100008.70
2019-04-01T10:08:59.179Z,100006.32
2019-04-01T10:14:09.554Z,100001.70
2019-04-01T10:19:15.601Z,99989.09
2019-04-01T10:24:21.802Z,99982.02
2019-04-01T10:29:27.855Z,99967.91
2019-04-01T10:34:34.289Z,99975.21
2019-04-01T10:39:41.656Z,99966.20
2019-04-01T10:44:47.520Z,99956.20
2019-04-01T10:49:54.551Z,99948.72
2019-04-01T10:55:00.389Z,99946.11
2019-04-01T11:00:10.436Z,99946.73
2019-04-01T11:05:17.220Z,99940.93
2019-04-01T11:10:22.906Z,99948.28
2019-04-01T11:15:28.591Z,99945.41
2019-04-01T11:20:34.240Z,99928.16
2019-04-01T11:25:40.471Z,99931.50
2019-04-01T11:30:46.195Z,99922.52
2019-04-01T11:35:51.865Z,99924.71
2019-04-01T11:40:58.864Z,99905.34
2019-04-01T11:46:06.128Z,99906.45
2019-04-01T11:51:12.109Z,99890.96
2019-04-01T11:56:17.769Z,99892.03
2019-04-01T12:01:23.694Z,99882.19
2019-04-01T12:06:30.451Z,99884.86
2019-04-01T12:11:36.442Z,99889.53
2019-04-01T12:16:43.527Z,99869.30
2019-04-01T12:21:49.270Z,99863.95
2019-04-01T12:26:55.455Z,99847.43
2019-04-01T12:32:01.105Z,99851.82
2019-04-01T12:37:06.920Z,99844.31
2019-04-01T12:42:13.283Z,99834.43
2019-04-01T12:47:18.942Z,99829.23
2019-04-01T12:52:25.325Z,99823.84
2019-04-01T12:57:30.936Z,99814.49
2019-04-01T13:02:36.932Z,99805.56
2019-04-01T13:07:43.100Z,99795.84
2019-04-01T13:12:49.741Z,99785.88
2019-04-01T13:17:55.435Z,99775.77
2019-04-01T13:23:04.407Z,99774.11
2019-04-01T13:28:10.113Z,99772.08
2019-04-01T13:33:17.018Z,99747.48
2019-04-01T13:38:23.105Z,99743.75
2019-04-01T13:43:29.993Z,99733.61
2019-04-01T13:48:35.924Z,99736.45
2019-04-01T13:53:41.539Z,99721.98
2019-04-01T13:58:47.209Z,99724.60
2019-04-01T14:03:53.181Z,99712.20
2019-04-01T14:09:00.486Z,99713.82
2019-04-01T14:14:07.765Z,99705.48
2019-04-01T14:19:13.698Z,99699.28
2019-04-01T14:24:19.310Z,99692.02
2019-04-01T14:29:26.422Z,99683.41
2019-04-01T14:34:35.667Z,99679.82
2019-04-01T14:39:41.879Z,99670.88
2019-04-01T14:44:58.607Z,99671.66
2019-04-01T14:50:07.623Z,99670.31
2019-04-01T14:55:13.335Z,99662.41
2019-04-01T15:00:20.725Z,99664.23
2019-04-01T15:05:26.879Z,99653.96
2019-04-01T15:10:32.901Z,99649.45
2019-04-01T15:15:38.514Z,99646.41
2019-04-01T15:20:44.548Z,99627.98
2019-04-01T15:25:50.205Z,99625.28
2019-04-01T15:30:56.575Z,99636.36
2019-04-01T15:36:04.736Z,99624.84
2019-04-01T15:41:11.333Z,99620.56
2019-04-01T15:46:18.243Z,99612.53
2019-04-01T15:51:23.969Z,99613.88
2019-04-01T15:56:29.798Z,99607.92
2019-04-01T16:01:35.495Z,99605.15
2019-04-01T16:06:41.361Z,99601.92
2019-04-01T16:11:47.557Z,99594.42
2019-04-01T16:16:54.918Z,99602.28
2019-04-01T16:22:01.192Z,99599.13
2019-04-01T16:27:08.004Z,99586.66
2019-04-01T16:32:13.878Z,99585.19
2019-04-01T16:37:20.123Z,99583.48
2019-04-01T16:42:25.989Z,99581.96
2019-04-01T16:47:34.267Z,99578.83
2019-04-01T16:52:50.565Z,99577.44
2019-04-01T16:57:56.851Z,99575.34
2019-04-01T17:03:03.312Z,99582.83
2019-04-01T17:08:10.345Z,99580.40
2019-04-01T17:13:17.322Z,99578.29
2019-04-01T17:18:23.111Z,99585.14
2019-04-01T17:23:30.599Z,99580.63
2019-04-01T17:28:39.877Z,99580.67
2019-04-01T17:33:45.660Z,99579.08
2019-04-01T17:38:52.374Z,99577.03
2019-04-01T17:43:58.778Z,99582.86
2019-04-01T17:49:06.788Z,99585.47
2019-04-01T17:54:14.572Z,99588.35
2019-04-01T17:59:20.417Z,99583.86
2019-04-01T18:04:26.095Z,99581.65
2019-04-01T18:09:31.894Z,99590.74
2019-04-01T18:14:38.307Z,99593.74
2019-04-01T18:19:44.993Z,99590.63
2019-04-01T18:24:51.183Z,99593.38
2019-04-01T18:29:58.788Z,99597.16
2019-04-01T18:35:09.908Z,99601.05
2019-04-01T18:40:31.491Z,99599.01
2019-04-01T18:45:28.369Z,99598.52
2019-04-01T18:50:36.394Z,99595.92
2019-04-01T18:55:45.063Z,99599.84
2019-04-01T19:00:51.316Z,99597.86
2019-04-01T19:05:58.547Z,99595.55
2019-04-01T19:11:06.132Z,99589.40
2019-04-01T19:16:16.795Z,99592.83
2019-04-01T19:21:23.903Z,99593.38
2019-04-01T19:26:31.623Z,99595.88
2019-04-01T19:31:51.139Z,99591.27
2019-04-01T19:36:58.897Z,99585.91
2019-04-01T19:42:05.862Z,99584.86
2019-04-01T19:47:11.822Z,99578.81
2019-04-01T19:52:20.458Z,99576.59
2019-04-01T19:57:28.083Z,99579.13
2019-04-01T20:02:37.456Z,99576.66
2019-04-01T20:07:44.139Z,99571.82
2019-04-01T20:12:53.315Z,99578.21
2019-04-01T20:17:59.892Z,99579.90
2019-04-01T20:23:09.178Z,99569.77
2019-04-01T20:28:15.458Z,99569.52
2019-04-01T20:33:22.070Z,99570.67
2019-04-01T20:38:28.777Z,99573.67
2019-04-01T20:43:34.832Z,99564.69
2019-04-01T20:48:40.633Z,99568.34
2019-04-01T20:53:47.725Z,99555.03
2019-04-01T20:58:55.893Z,99556.95
2019-04-01T21:04:01.214Z,99543.48
2019-04-01T21:09:09.857Z,99540.64
2019-04-01T21:14:17.322Z,99534.15
2019-04-01T21:19:22.955Z,99526.03
2019-04-01T21:24:29.164Z,99527.10
2019-04-01T21:34:40.254Z,99514.41
2019-04-01T21:39:46.422Z,99511.12
2019-04-01T21:44:52.023Z,99498.23
2019-04-01T21:49:57.754Z,99494.55
2019-04-01T21:55:03.460Z,99477.33
2019-04-01T22:00:11.719Z,99483.83
2019-04-01T22:05:19.515Z,99482.00
2019-04-01T22:10:25.355Z,99472.66
2019-04-01T22:15:30.967Z,99466.27
2019-04-01T22:20:36.905Z,99466.66
2019-04-01T22:25:42.673Z,99464.97
2019-04-01T22:30:48.280Z,99457.20
2019-04-01T22:35:54.285Z,99439.17
2019-04-01T22:41:00.274Z,99451.24
2019-04-01T22:46:09.135Z,99448.75
2019-04-01T22:51:14.796Z,99444.61
2019-04-01T22:56:20.655Z,99437.89
2019-04-01T23:01:26.609Z,99441.81
2019-04-01T23:06:32.218Z,99435.30
2019-04-01T23:11:38.485Z,99425.75
2019-04-01T23:16:44.248Z,99417.13
2019-04-01T23:21:50.180Z,99417.32
2019-04-01T23:26:56.355Z,99415.59
2019-04-01T23:32:02.087Z,99407.27
2019-04-01T23:37:09.271Z,99400.33
2019-04-01T23:42:15.613Z,99391.80
2019-04-01T23:47:21.238Z,99391.44
2019-04-01T23:52:27.368Z,99389.61
2019-04-01T23:57:34.535Z,99386.80
